createdAt,value
2022-10-17T00:02:20.559Z,18.14
2022-10-17T00:05:22.657Z,18.18
2022-10-17T00:08:24.413Z,18.15
2022-10-17T00:11:26.105Z,18.29
2022-10-17T00:14:27.834Z,18.66
2022-10-17T00:17:30.067Z,17.79
2022-10-17T00:20:35.439Z,17.20
2022-10-17T00:23:37.299Z,16.86
2022-10-17T00:26:38.945Z,16.54
2022-10-17T00:29:41.015Z,16.34
2022-10-17T00:32:42.987Z,16.10
2022-10-17T00:35:44.578Z,15.87
2022-10-17T00:38:49.713Z,15.59
2022-10-17T00:41:51.536Z,15.46
2022-10-17T00:45:01.442Z,15.37
2022-10-17T00:48:08.607Z,15.36
2022-10-17T00:51:10.692Z,15.28
2022-10-17T00:54:14.640Z,15.22
2022-10-17T00:57:17.700Z,15.08
2022-10-17T01:00:20.189Z,15.03
2022-10-17T01:03:22.088Z,14.97
2022-10-17T01:06:23.872Z,14.69
2022-10-17T01:09:27.349Z,14.68
2022-10-17T01:13:01.893Z,14.68
2022-10-17T01:16:13.911Z,14.75
2022-10-17T01:19:41.171Z,14.83
2022-10-17T01:22:57.671Z,14.94
2022-10-17T01:26:11.443Z,15.21
2022-10-17T01:29:47.213Z,16.00
2022-10-17T01:32:54.987Z,15.75
2022-10-17T01:36:04.799Z,15.42
2022-10-17T01:39:14.756Z,15.95
2022-10-17T01:42:30.889Z,15.86
2022-10-17T01:45:45.208Z,15.26
2022-10-17T01:48:47.191Z,15.29
2022-10-17T01:52:00.763Z,15.53
2022-10-17T01:55:14.462Z,15.38
2022-10-17T01:58:27.973Z,15.57
2022-10-17T02:01:31.620Z,15.67
2022-10-17T02:04:36.271Z,15.58
2022-10-17T02:07:41.477Z,15.53
2022-10-17T02:10:59.625Z,15.36
2022-10-17T02:14:20.297Z,15.16
2022-10-17T02:17:42.263Z,14.99
2022-10-17T02:20:56.789Z,14.94
2022-10-17T02:24:16.962Z,14.84
2022-10-17T02:27:33.970Z,14.87
2022-10-17T02:30:43.115Z,15.00
2022-10-17T02:33:54.729Z,14.83
2022-10-17T02:37:00.496Z,14.73
2022-10-17T02:40:03.394Z,14.39
2022-10-17T02:43:05.250Z,14.28
2022-10-17T02:46:08.218Z,14.22
2022-10-17T02:49:21.930Z,14.18
2022-10-17T02:52:29.486Z,14.21
2022-10-17T02:55:39.096Z,14.23
2022-10-17T02:58:43.706Z,14.18
2022-10-17T03:01:45.619Z,14.13
2022-10-17T03:04:47.586Z,14.06
2022-10-17T03:07:52.100Z,14.11
2022-10-17T03:10:54.196Z,14.02
2022-10-17T03:13:57.409Z,13.99
2022-10-17T03:16:59.089Z,13.88
2022-10-17T03:20:01.416Z,13.92
2022-10-17T03:23:04.662Z,13.94
2022-10-17T03:26:07.610Z,14.07
2022-10-17T03:29:10.298Z,13.95
2022-10-17T03:32:13.982Z,13.93
2022-10-17T03:35:15.677Z,13.93
2022-10-17T03:38:23.081Z,13.86
2022-10-17T03:41:25.791Z,13.92
2022-10-17T03:44:29.133Z,13.88
2022-10-17T03:47:31.861Z,13.90
2022-10-17T03:50:34.158Z,13.83
2022-10-17T03:53:36.303Z,13.75
2022-10-17T03:56:38.929Z,13.86
2022-10-17T03:59:45.510Z,14.03
2022-10-17T04:02:51.723Z,14.16
2022-10-17T04:05:54.606Z,14.06
2022-10-17T04:08:56.483Z,14.20
2022-10-17T04:12:24.274Z,14.10
2022-10-17T04:15:26.078Z,13.83
2022-10-17T04:18:28.743Z,13.64
2022-10-17T04:21:30.495Z,13.68
2022-10-17T04:24:37.098Z,13.56
2022-10-17T04:27:59.008Z,13.57
2022-10-17T04:31:07.032Z,13.46
2022-10-17T04:34:17.208Z,13.41
2022-10-17T04:37:19.104Z,13.21
2022-10-17T04:40:22.674Z,13.15
2022-10-17T04:43:27.007Z,13.23
2022-10-17T04:46:31.833Z,13.36
2022-10-17T04:49:35.434Z,13.34
2022-10-17T04:52:48.139Z,13.30
2022-10-17T04:55:50.437Z,13.29
2022-10-17T04:58:52.618Z,13.26
2022-10-17T05:01:54.570Z,13.29
2022-10-17T05:04:56.401Z,12.79
2022-10-17T05:07:59.030Z,13.12
2022-10-17T05:11:06.279Z,13.14
2022-10-17T05:14:08.259Z,13.16
2022-10-17T05:17:10.578Z,13.21
2022-10-17T05:20:13.457Z,13.19
2022-10-17T05:23:16.043Z,13.24
2022-10-17T05:26:19.843Z,12.96
2022-10-17T05:29:21.823Z,13.02
2022-10-17T05:32:29.419Z,13.18
2022-10-17T05:35:31.199Z,13.14
2022-10-17T05:38:33.365Z,13.13
2022-10-17T05:41:35.195Z,13.38
2022-10-17T05:44:36.991Z,13.37
2022-10-17T05:47:38.672Z,13.34
2022-10-17T05:50:40.389Z,13.35
2022-10-17T05:53:50.018Z,13.18
2022-10-17T05:56:58.056Z,13.20
2022-10-17T06:00:05.738Z,13.40
2022-10-17T06:03:15.717Z,13.19
2022-10-17T06:06:18.393Z,13.09
2022-10-17T06:09:21.599Z,13.01
2022-10-17T06:12:26.205Z,13.12
2022-10-17T06:15:28.234Z,13.25
2022-10-17T06:18:37.716Z,13.32
2022-10-17T06:21:39.459Z,13.36
2022-10-17T06:24:55.473Z,13.58
2022-10-17T06:27:57.868Z,13.68
2022-10-17T06:30:59.571Z,13.71
2022-10-17T06:34:01.922Z,13.46
2022-10-17T06:37:04.480Z,13.50
2022-10-17T06:40:10.380Z,13.65
2022-10-17T06:43:12.957Z,13.77
2022-10-17T06:46:33.366Z,13.72
2022-10-17T06:49:38.070Z,13.70
2022-10-17T06:53:18.289Z,13.82
2022-10-17T06:56:27.375Z,13.88
2022-10-17T06:59:44.100Z,13.80
2022-10-17T07:02:51.231Z,14.10
2022-10-17T07:05:54.707Z,14.51
2022-10-17T07:08:57.592Z,14.91
2022-10-17T07:12:00.106Z,15.18
2022-10-17T07:15:04.150Z,15.20
2022-10-17T07:18:06.077Z,15.12
2022-10-17T07:21:08.870Z,15.36
2022-10-17T07:24:11.674Z,15.63
2022-10-17T07:27:15.940Z,15.63
2022-10-17T07:30:17.856Z,15.63
2022-10-17T07:33:28.395Z,15.64
2022-10-17T07:36:30.193Z,15.86
2022-10-17T07:39:35.651Z,16.20
2022-10-17T07:45:45.652Z,16.45
2022-10-17T07:48:47.513Z,16.82
2022-10-17T07:51:50.024Z,16.86
2022-10-17T07:54:51.932Z,17.17
2022-10-17T07:57:53.555Z,17.34
2022-10-17T08:00:55.235Z,17.19
2022-10-17T08:03:56.892Z,17.19
2022-10-17T08:07:17.949Z,17.23
2022-10-17T08:10:27.666Z,17.29
2022-10-17T08:13:29.417Z,17.38
2022-10-17T08:16:31.143Z,17.29
2022-10-17T08:19:32.799Z,17.44
2022-10-17T08:22:35.165Z,17.53
2022-10-17T08:25:39.916Z,17.41
2022-10-17T08:28:41.583Z,17.37
2022-10-17T08:31:47.429Z,17.55
2022-10-17T08:34:50.041Z,17.93
2022-10-17T08:37:51.756Z,18.15
2022-10-17T08:40:55.681Z,18.36
2022-10-17T08:44:27.633Z,18.41
2022-10-17T08:47:36.700Z,18.44
2022-10-17T08:50:46.088Z,18.61
2022-10-17T08:53:55.789Z,18.68
2022-10-17T08:56:57.490Z,18.92
2022-10-17T08:59:59.116Z,19.38
2022-10-17T09:03:16.463Z,19.55
2022-10-17T09:06:33.907Z,19.77
2022-10-17T09:09:38.259Z,20.04
2022-10-17T09:13:07.738Z,20.05
2022-10-17T09:16:24.481Z,19.96
2022-10-17T09:19:43.254Z,20.16
2022-10-17T09:26:03.144Z,20.21
2022-10-17T09:29:15.828Z,20.35
2022-10-17T09:32:22.972Z,20.53
2022-10-17T09:35:27.787Z,20.71
2022-10-17T09:38:37.842Z,20.50
2022-10-17T09:41:45.826Z,20.64
2022-10-17T09:45:05.659Z,20.83
2022-10-17T09:48:13.386Z,21.05
2022-10-17T09:51:25.674Z,20.95
2022-10-17T09:54:52.705Z,20.98
2022-10-17T09:58:02.105Z,21.07
2022-10-17T10:01:21.055Z,20.98
2022-10-17T10:04:30.241Z,21.10
2022-10-17T10:07:38.553Z,21.14
2022-10-17T10:10:43.464Z,21.24
2022-10-17T10:13:49.207Z,21.43
2022-10-17T10:16:53.706Z,21.47
2022-10-17T10:19:55.605Z,21.40
2022-10-17T10:23:07.548Z,21.63
2022-10-17T10:26:25.971Z,21.50
2022-10-17T10:29:32.307Z,21.42
2022-10-17T10:32:36.723Z,21.72
2022-10-17T10:35:38.690Z,22.08
2022-10-17T10:38:42.530Z,21.76
2022-10-17T10:41:48.848Z,21.86
2022-10-17T10:44:52.220Z,21.98
2022-10-17T10:47:59.557Z,22.01
2022-10-17T10:51:11.820Z,22.03
2022-10-17T10:54:28.204Z,22.39
2022-10-17T10:57:33.815Z,22.75
2022-10-17T11:00:38.838Z,22.93
2022-10-17T11:03:54.937Z,23.58
2022-10-17T11:07:16.695Z,23.93
2022-10-17T11:10:24.445Z,24.03
2022-10-17T11:13:40.658Z,24.02
2022-10-17T11:16:50.465Z,24.33
2022-10-17T11:20:23.173Z,24.30
2022-10-17T11:23:34.308Z,24.24
2022-10-17T11:26:43.157Z,23.95
2022-10-17T11:29:45.758Z,23.91
2022-10-17T11:32:59.789Z,24.11
2022-10-17T11:36:05.742Z,24.22
2022-10-17T11:39:19.912Z,24.25
2022-10-17T11:42:30.678Z,24.24
2022-10-17T11:45:43.263Z,24.38
2022-10-17T11:49:21.242Z,24.38
2022-10-17T11:52:55.980Z,24.53
2022-10-17T11:56:00.382Z,24.53
2022-10-17T11:59:34.196Z,24.40
2022-10-17T12:03:02.233Z,24.51
2022-10-17T12:06:17.945Z,24.61
2022-10-17T12:09:41.234Z,24.60
2022-10-17T12:12:43.442Z,24.95
2022-10-17T12:15:46.747Z,24.80
2022-10-17T12:18:52.953Z,24.65
2022-10-17T12:22:01.531Z,24.70
2022-10-17T12:25:04.422Z,24.88
2022-10-17T12:28:30.114Z,24.98
2022-10-17T12:31:34.064Z,24.96
2022-10-17T12:34:37.026Z,25.07
2022-10-17T12:37:51.033Z,25.13
2022-10-17T12:40:55.607Z,24.81
2022-10-17T12:43:57.375Z,24.89
2022-10-17T12:47:29.437Z,25.00
2022-10-17T12:54:25.856Z,24.83
2022-10-17T12:57:31.255Z,24.80
2022-10-17T13:00:49.836Z,25.19
2022-10-17T13:04:08.448Z,25.00
2022-10-17T13:07:28.722Z,25.27
2022-10-17T13:10:34.727Z,25.17
2022-10-17T13:13:48.685Z,25.55
2022-10-17T13:17:02.236Z,25.69
2022-10-17T13:20:04.227Z,25.60
2022-10-17T13:23:05.802Z,25.32
2022-10-17T13:26:10.486Z,25.58
2022-10-17T13:29:14.540Z,25.37
2022-10-17T13:32:16.235Z,25.62
2022-10-17T13:35:42.062Z,25.74
2022-10-17T13:38:47.828Z,25.95
2022-10-17T13:41:50.707Z,25.97
2022-10-17T13:44:52.588Z,25.66
2022-10-17T13:47:55.174Z,25.47
2022-10-17T13:51:03.030Z,25.37
2022-10-17T13:54:31.804Z,25.49
2022-10-17T13:57:33.923Z,25.79
2022-10-17T14:00:35.988Z,26.12
2022-10-17T14:03:48.117Z,26.31
2022-10-17T14:06:52.224Z,26.45
2022-10-17T14:09:54.224Z,26.46
2022-10-17T14:12:56.797Z,26.44
2022-10-17T14:16:01.571Z,26.64
2022-10-17T14:19:05.038Z,26.15
2022-10-17T14:22:26.476Z,26.42
2022-10-17T14:25:36.734Z,26.77
2022-10-17T14:28:39.902Z,26.24
2022-10-17T14:31:41.617Z,25.86
2022-10-17T14:34:43.413Z,26.03
2022-10-17T14:37:47.765Z,26.18
2022-10-17T14:41:04.820Z,26.41
2022-10-17T14:44:28.689Z,25.87
2022-10-17T14:47:43.270Z,25.58
2022-10-17T14:51:15.431Z,25.65
2022-10-17T14:54:24.940Z,25.04
2022-10-17T14:57:42.733Z,24.56
2022-10-17T15:00:44.332Z,24.67
2022-10-17T15:03:46.004Z,24.47
2022-10-17T15:06:54.579Z,24.52
2022-10-17T15:09:56.264Z,24.50
2022-10-17T15:13:26.165Z,24.39
2022-10-17T15:16:26.867Z,24.23
2022-10-17T15:19:28.474Z,24.02
2022-10-17T15:22:31.588Z,24.26
2022-10-17T15:25:34.500Z,24.22
2022-10-17T15:28:36.238Z,24.10
2022-10-17T15:31:37.866Z,24.04
2022-10-17T15:34:40.138Z,23.82
2022-10-17T15:37:42.968Z,23.58
2022-10-17T15:40:45.913Z,23.38
2022-10-17T15:43:48.811Z,23.12
2022-10-17T15:46:50.462Z,22.66
2022-10-17T15:49:52.560Z,22.64
2022-10-17T15:52:54.249Z,22.48
2022-10-17T15:55:55.833Z,22.31
2022-10-17T15:58:58.189Z,22.23
2022-10-17T16:01:59.798Z,22.33
2022-10-17T16:05:01.803Z,22.40
2022-10-17T16:08:03.494Z,22.06
2022-10-17T16:11:05.343Z,21.97
2022-10-17T16:14:12.789Z,21.78
2022-10-17T16:17:17.673Z,21.57
2022-10-17T16:20:20.360Z,21.40
2022-10-17T16:23:21.985Z,21.17
2022-10-17T16:26:23.660Z,21.14
2022-10-17T16:29:25.230Z,21.03
2022-10-17T16:32:26.855Z,21.03
2022-10-17T16:35:33.292Z,20.87
2022-10-17T16:38:38.360Z,20.73
2022-10-17T16:41:40.247Z,20.63
2022-10-17T16:44:41.906Z,20.45
2022-10-17T16:47:43.466Z,20.28
2022-10-17T16:50:45.037Z,20.29
2022-10-17T16:53:50.040Z,20.32
2022-10-17T16:56:51.633Z,20.37
2022-10-17T16:59:53.299Z,20.27
2022-10-17T17:02:55.052Z,20.27
2022-10-17T17:05:57.031Z,20.21
2022-10-17T17:08:58.767Z,20.16
2022-10-17T17:12:00.326Z,20.09
2022-10-17T17:15:02.388Z,20.05
2022-10-17T17:18:05.850Z,20.04
2022-10-17T17:21:09.258Z,19.98
2022-10-17T17:24:10.879Z,20.01
2022-10-17T17:27:13.570Z,19.85
2022-10-17T17:30:16.207Z,19.22
2022-10-17T17:33:17.974Z,19.21
2022-10-17T17:36:23.085Z,19.10
2022-10-17T17:39:24.666Z,19.02
2022-10-17T17:42:26.300Z,18.94
2022-10-17T17:45:27.934Z,18.88
2022-10-17T17:48:29.853Z,18.82
2022-10-17T17:51:31.617Z,18.54
2022-10-17T17:54:37.187Z,18.58
2022-10-17T17:57:41.673Z,18.41
2022-10-17T18:00:43.356Z,18.50
2022-10-17T18:03:45.771Z,18.62
2022-10-17T18:06:47.360Z,18.56
2022-10-17T18:09:50.971Z,18.45
2022-10-17T18:12:52.679Z,18.53
2022-10-17T18:15:59.583Z,18.58
2022-10-17T18:19:06.640Z,18.42
2022-10-17T18:22:09.450Z,18.50
2022-10-17T18:25:11.049Z,18.62
2022-10-17T18:28:12.664Z,18.76
2022-10-17T18:31:19.430Z,18.83
2022-10-17T18:34:21.505Z,18.92
2022-10-17T18:37:23.249Z,18.97
2022-10-17T18:40:24.986Z,18.86
2022-10-17T18:43:26.725Z,18.88
2022-10-17T18:46:36.189Z,18.88
2022-10-17T18:49:38.101Z,18.76
2022-10-17T18:52:40.899Z,18.63
2022-10-17T18:55:42.572Z,18.63
2022-10-17T18:58:44.908Z,18.51
2022-10-17T19:01:46.743Z,18.60
2022-10-17T19:07:50.907Z,18.25
2022-10-17T19:10:52.556Z,18.20
2022-10-17T19:13:57.070Z,18.03
2022-10-17T19:16:59.774Z,18.12
2022-10-17T19:20:01.430Z,18.30
2022-10-17T19:23:03.267Z,18.36
2022-10-17T19:26:07.299Z,18.38
2022-10-17T19:29:12.491Z,18.58
2022-10-17T19:32:16.897Z,18.70
2022-10-17T19:35:20.904Z,18.67
2022-10-17T19:38:22.732Z,18.89
2022-10-17T19:41:24.695Z,18.65
2022-10-17T19:44:26.548Z,19.08
2022-10-17T19:47:29.180Z,19.21
2022-10-17T19:50:30.766Z,19.15
2022-10-17T19:53:32.605Z,19.17
2022-10-17T19:56:38.257Z,19.34
2022-10-17T19:59:40.311Z,19.50
2022-10-17T20:02:41.912Z,19.17
2022-10-17T20:05:43.631Z,19.50
2022-10-17T20:08:45.662Z,19.21
2022-10-17T20:11:49.117Z,19.25
2022-10-17T20:14:50.725Z,19.07
2022-10-17T20:17:52.309Z,19.16
2022-10-17T20:20:55.045Z,19.05
2022-10-17T20:23:59.379Z,19.12
2022-10-17T20:27:00.923Z,19.09
2022-10-17T20:30:03.852Z,19.41
2022-10-17T20:33:06.380Z,19.20
2022-10-17T20:36:12.074Z,19.05
2022-10-17T20:39:15.457Z,19.44
2022-10-17T20:42:17.102Z,19.59
2022-10-17T20:45:27.533Z,19.72
2022-10-17T20:48:39.307Z,19.86
2022-10-17T20:51:41.272Z,19.83
2022-10-17T20:54:43.086Z,19.64
2022-10-17T20:57:44.656Z,19.86
2022-10-17T21:00:46.583Z,19.76
2022-10-17T21:03:48.489Z,19.77
2022-10-17T21:06:52.056Z,19.83
2022-10-17T21:09:53.723Z,20.05
2022-10-17T21:12:55.761Z,19.96
2022-10-17T21:16:05.075Z,19.84
2022-10-17T21:19:06.771Z,19.91
2022-10-17T21:22:08.388Z,19.88
2022-10-17T21:25:10.008Z,19.95
2022-10-17T21:28:11.643Z,19.96
2022-10-17T21:31:14.957Z,20.09
2022-10-17T21:34:23.859Z,20.08
2022-10-17T21:37:25.590Z,20.12
2022-10-17T21:40:27.204Z,20.09
2022-10-17T21:43:28.810Z,19.79
2022-10-17T21:46:30.732Z,19.88
2022-10-17T21:49:33.910Z,19.66
2022-10-17T21:52:35.539Z,19.79
2022-10-17T21:55:37.664Z,19.86
2022-10-17T21:58:40.001Z,19.94
2022-10-17T22:01:44.409Z,19.80
2022-10-17T22:04:46.105Z,19.68
2022-10-17T22:07:47.893Z,19.70
2022-10-17T22:10:49.607Z,19.87
2022-10-17T22:13:56.888Z,19.88
2022-10-17T22:16:58.555Z,19.84
2022-10-17T22:20:00.283Z,19.71
2022-10-17T22:23:01.927Z,19.72
2022-10-17T22:26:04.714Z,20.02
2022-10-17T22:29:07.973Z,20.04
2022-10-17T22:32:09.625Z,20.16
2022-10-17T22:35:11.235Z,20.23
2022-10-17T22:38:13.760Z,20.31
2022-10-17T22:41:15.653Z,20.11
2022-10-17T22:44:17.290Z,20.21
2022-10-17T22:47:18.925Z,20.15
2022-10-17T22:50:21.610Z,20.13
2022-10-17T22:53:25.933Z,20.20
2022-10-17T22:56:27.728Z,19.96
2022-10-17T22:59:29.376Z,19.87
2022-10-17T23:02:32.197Z,20.00
2022-10-17T23:05:34.097Z,20.18
2022-10-17T23:08:36.403Z,20.21
2022-10-17T23:11:37.958Z,19.87
2022-10-17T23:14:43.213Z,19.91
2022-10-17T23:17:44.793Z,19.84
2022-10-17T23:20:46.856Z,19.81
2022-10-17T23:23:48.456Z,19.70
2022-10-17T23:26:50.031Z,19.69
2022-10-17T23:29:51.638Z,19.66
2022-10-17T23:32:53.346Z,19.79
2022-10-17T23:35:54.905Z,19.75
2022-10-17T23:38:58.539Z,19.68
2022-10-17T23:42:00.532Z,19.73
2022-10-17T23:45:02.364Z,19.82
2022-10-17T23:48:05.343Z,19.76
2022-10-17T23:51:08.834Z,19.74
2022-10-17T23:54:10.453Z,19.56
2022-10-17T23:57:12.096Z,19.56
